sensor_id;sensor_type;location;lat;lon;timestamp;temperature;humidity
39401;DHT22;54391;50.000;7.360;2023-09-19T00:00:16;15.00;90.30
39401;DHT22;54391;50.000;7.360;2023-09-19T00:02:46;15.00;90.60
39401;DHT22;54391;50.000;7.360;2023-09-19T00:07:42;14.90;90.20
39401;DHT22;54391;50.000;7.360;2023-09-19T00:10:10;15.00;90.70
39401;DHT22;54391;50.000;7.360;2023-09-19T00:12:44;15.00;91.80
39401;DHT22;54391;50.000;7.360;2023-09-19T00:15:11;14.90;91.20
39401;DHT22;54391;50.000;7.360;2023-09-19T00:17:38;14.90;91.10
39401;DHT22;54391;50.000;7.360;2023-09-19T00:20:06;14.90;90.70
39401;DHT22;54391;50.000;7.360;2023-09-19T00:22:39;14.90;90.40
39401;DHT22;54391;50.000;7.360;2023-09-19T00:25:07;14.70;90.50
39401;DHT22;54391;50.000;7.360;2023-09-19T00:27:35;14.80;91.80
39401;DHT22;54391;50.000;7.360;2023-09-19T00:30:07;14.80;91.30
39401;DHT22;54391;50.000;7.360;2023-09-19T00:32:40;14.80;92.30
39401;DHT22;54391;50.000;7.360;2023-09-19T00:35:08;14.70;92.00
39401;DHT22;54391;50.000;7.360;2023-09-19T00:37:36;14.70;91.60
39401;DHT22;54391;50.000;7.360;2023-09-19T00:40:06;14.60;90.80
39401;DHT22;54391;50.000;7.360;2023-09-19T00:42:37;14.50;91.40
39401;DHT22;54391;50.000;7.360;2023-09-19T00:45:07;14.50;90.60
39401;DHT22;54391;50.000;7.360;2023-09-19T00:47:36;14.40;88.90
39401;DHT22;54391;50.000;7.360;2023-09-19T00:50:04;14.40;87.40
39401;DHT22;54391;50.000;7.360;2023-09-19T00:52:33;14.40;89.70
39401;DHT22;54391;50.000;7.360;2023-09-19T00:57:38;14.30;88.70
39401;DHT22;54391;50.000;7.360;2023-09-19T01:00:08;14.30;90.50
39401;DHT22;54391;50.000;7.360;2023-09-19T01:02:42;14.30;88.90
39401;DHT22;54391;50.000;7.360;2023-09-19T01:05:10;14.20;87.10
39401;DHT22;54391;50.000;7.360;2023-09-19T01:07:38;14.10;86.20
39401;DHT22;54391;50.000;7.360;2023-09-19T01:10:08;14.10;88.10
39401;DHT22;54391;50.000;7.360;2023-09-19T01:12:46;14.00;88.20
39401;DHT22;54391;50.000;7.360;2023-09-19T01:15:22;13.90;84.60
39401;DHT22;54391;50.000;7.360;2023-09-19T01:18:02;13.80;85.10
39401;DHT22;54391;50.000;7.360;2023-09-19T01:20:37;13.80;81.10
39401;DHT22;54391;50.000;7.360;2023-09-19T01:23:13;13.80;81.40
39401;DHT22;54391;50.000;7.360;2023-09-19T01:25:52;13.80;81.00
39401;DHT22;54391;50.000;7.360;2023-09-19T01:28:32;14.50;82.10
39401;DHT22;54391;50.000;7.360;2023-09-19T01:31:07;13.90;82.80
39401;DHT22;54391;50.000;7.360;2023-09-19T01:33:55;13.80;83.90
39401;DHT22;54391;50.000;7.360;2023-09-19T01:36:27;13.70;84.50
39401;DHT22;54391;50.000;7.360;2023-09-19T01:38:56;13.70;85.50
39401;DHT22;54391;50.000;7.360;2023-09-19T01:41:33;13.70;86.40
39401;DHT22;54391;50.000;7.360;2023-09-19T01:44:04;13.70;86.90
39401;DHT22;54391;50.000;7.360;2023-09-19T01:46:37;12.30;85.80
39401;DHT22;54391;50.000;7.360;2023-09-19T01:49:15;13.70;86.90
39401;DHT22;54391;50.000;7.360;2023-09-19T01:51:52;13.60;86.60
39401;DHT22;54391;50.000;7.360;2023-09-19T01:54:26;13.60;86.60
39401;DHT22;54391;50.000;7.360;2023-09-19T01:57:01;13.60;85.60
39401;DHT22;54391;50.000;7.360;2023-09-19T01:59:36;13.60;85.20
39401;DHT22;54391;50.000;7.360;2023-09-19T02:02:08;13.50;86.10
39401;DHT22;54391;50.000;7.360;2023-09-19T02:04:36;13.60;86.60
39401;DHT22;54391;50.000;7.360;2023-09-19T02:07:03;13.50;86.50
39401;DHT22;54391;50.000;7.360;2023-09-19T02:09:34;13.60;87.80
39401;DHT22;54391;50.000;7.360;2023-09-19T02:12:05;13.60;87.70
39401;DHT22;54391;50.000;7.360;2023-09-19T02:14:33;13.60;88.20
39401;DHT22;54391;50.000;7.360;2023-09-19T02:17:03;13.50;87.40
39401;DHT22;54391;50.000;7.360;2023-09-19T02:19:34;13.50;88.10
39401;DHT22;54391;50.000;7.360;2023-09-19T02:22:04;13.50;87.70
39401;DHT22;54391;50.000;7.360;2023-09-19T02:24:33;13.50;87.60
39401;DHT22;54391;50.000;7.360;2023-09-19T02:27:00;13.50;86.10
39401;DHT22;54391;50.000;7.360;2023-09-19T02:29:31;13.50;86.80
39401;DHT22;54391;50.000;7.360;2023-09-19T02:32:00;13.50;87.10
39401;DHT22;54391;50.000;7.360;2023-09-19T02:34:27;13.50;87.30
39401;DHT22;54391;50.000;7.360;2023-09-19T02:36:56;13.50;86.50
39401;DHT22;54391;50.000;7.360;2023-09-19T02:39:24;13.50;87.40
39401;DHT22;54391;50.000;7.360;2023-09-19T02:41:51;13.40;87.40
39401;DHT22;54391;50.000;7.360;2023-09-19T02:44:19;13.50;86.80
39401;DHT22;54391;50.000;7.360;2023-09-19T02:46:47;13.50;85.20
39401;DHT22;54391;50.000;7.360;2023-09-19T02:49:14;13.40;85.80
39401;DHT22;54391;50.000;7.360;2023-09-19T02:51:43;13.50;85.70
39401;DHT22;54391;50.000;7.360;2023-09-19T02:54:13;13.50;86.00
39401;DHT22;54391;50.000;7.360;2023-09-19T02:56:42;13.50;85.60
39401;DHT22;54391;50.000;7.360;2023-09-19T02:59:09;13.50;86.80
39401;DHT22;54391;50.000;7.360;2023-09-19T03:01:37;13.50;86.30
39401;DHT22;54391;50.000;7.360;2023-09-19T03:04:05;13.50;86.20
39401;DHT22;54391;50.000;7.360;2023-09-19T03:06:37;13.50;85.10
39401;DHT22;54391;50.000;7.360;2023-09-19T03:09:06;13.50;86.30
39401;DHT22;54391;50.000;7.360;2023-09-19T03:11:41;13.60;84.60
39401;DHT22;54391;50.000;7.360;2023-09-19T03:14:09;13.60;84.50
39401;DHT22;54391;50.000;7.360;2023-09-19T03:16:38;13.50;84.60
39401;DHT22;54391;50.000;7.360;2023-09-19T03:19:06;13.50;84.80
39401;DHT22;54391;50.000;7.360;2023-09-19T03:21:35;13.50;84.70
39401;DHT22;54391;50.000;7.360;2023-09-19T03:24:05;13.50;84.40
39401;DHT22;54391;50.000;7.360;2023-09-19T03:26:33;13.50;82.50
39401;DHT22;54391;50.000;7.360;2023-09-19T03:29:05;13.50;82.60
39401;DHT22;54391;50.000;7.360;2023-09-19T03:31:34;13.50;83.20
39401;DHT22;54391;50.000;7.360;2023-09-19T03:34:04;13.50;83.30
39401;DHT22;54391;50.000;7.360;2023-09-19T03:36:31;13.40;82.80
39401;DHT22;54391;50.000;7.360;2023-09-19T03:39:02;13.50;83.40
39401;DHT22;54391;50.000;7.360;2023-09-19T03:41:31;13.40;82.90
39401;DHT22;54391;50.000;7.360;2023-09-19T03:43:59;13.40;82.50
39401;DHT22;54391;50.000;7.360;2023-09-19T03:46:28;13.40;82.70
39401;DHT22;54391;50.000;7.360;2023-09-19T03:48:56;13.40;83.30
39401;DHT22;54391;50.000;7.360;2023-09-19T03:51:23;13.40;83.20
39401;DHT22;54391;50.000;7.360;2023-09-19T03:53:51;13.30;83.40
39401;DHT22;54391;50.000;7.360;2023-09-19T03:56:18;13.30;82.60
39401;DHT22;54391;50.000;7.360;2023-09-19T03:58:45;13.30;82.80
39401;DHT22;54391;50.000;7.360;2023-09-19T04:01:12;13.30;83.80
39401;DHT22;54391;50.000;7.360;2023-09-19T04:03:41;13.30;82.50
39401;DHT22;54391;50.000;7.360;2023-09-19T04:06:19;13.30;80.90
39401;DHT22;54391;50.000;7.360;2023-09-19T04:08:46;13.30;82.10
39401;DHT22;54391;50.000;7.360;2023-09-19T04:11:14;13.30;81.60
39401;DHT22;54391;50.000;7.360;2023-09-19T04:13:41;13.40;82.40
39401;DHT22;54391;50.000;7.360;2023-09-19T04:16:09;13.30;82.00
39401;DHT22;54391;50.000;7.360;2023-09-19T04:18:36;13.30;82.70
39401;DHT22;54391;50.000;7.360;2023-09-19T04:21:07;13.30;81.80
39401;DHT22;54391;50.000;7.360;2023-09-19T04:23:35;13.30;82.00
39401;DHT22;54391;50.000;7.360;2023-09-19T04:26:03;13.30;79.90
39401;DHT22;54391;50.000;7.360;2023-09-19T04:28:32;13.30;80.80
39401;DHT22;54391;50.000;7.360;2023-09-19T04:31:00;13.30;80.90
39401;DHT22;54391;50.000;7.360;2023-09-19T04:33:27;13.20;79.00
39401;DHT22;54391;50.000;7.360;2023-09-19T04:35:54;13.20;79.20
39401;DHT22;54391;50.000;7.360;2023-09-19T04:38:23;13.20;80.80
39401;DHT22;54391;50.000;7.360;2023-09-19T04:40:50;13.10;80.60
39401;DHT22;54391;50.000;7.360;2023-09-19T04:43:24;13.20;79.00
39401;DHT22;54391;50.000;7.360;2023-09-19T04:45:51;13.10;78.30
39401;DHT22;54391;50.000;7.360;2023-09-19T04:48:21;13.10;79.30
39401;DHT22;54391;50.000;7.360;2023-09-19T04:50:51;13.10;77.90
39401;DHT22;54391;50.000;7.360;2023-09-19T04:53:18;13.10;78.00
39401;DHT22;54391;50.000;7.360;2023-09-19T04:55:51;13.20;77.90
39401;DHT22;54391;50.000;7.360;2023-09-19T04:58:21;13.20;78.70
39401;DHT22;54391;50.000;7.360;2023-09-19T05:00:48;13.20;79.00
39401;DHT22;54391;50.000;7.360;2023-09-19T05:03:17;13.20;78.60
39401;DHT22;54391;50.000;7.360;2023-09-19T05:05:46;13.10;76.70
39401;DHT22;54391;50.000;7.360;2023-09-19T05:08:14;13.10;77.60
39401;DHT22;54391;50.000;7.360;2023-09-19T05:10:41;13.10;79.10
39401;DHT22;54391;50.000;7.360;2023-09-19T05:13:10;13.10;78.70
39401;DHT22;54391;50.000;7.360;2023-09-19T05:15:38;13.10;76.90
39401;DHT22;54391;50.000;7.360;2023-09-19T05:18:05;13.10;77.00
39401;DHT22;54391;50.000;7.360;2023-09-19T05:20:33;13.00;76.20
39401;DHT22;54391;50.000;7.360;2023-09-19T05:23:02;13.00;76.50
39401;DHT22;54391;50.000;7.360;2023-09-19T05:25:34;13.00;76.80
39401;DHT22;54391;50.000;7.360;2023-09-19T05:28:03;13.00;77.60
39401;DHT22;54391;50.000;7.360;2023-09-19T05:30:33;13.00;76.50
39401;DHT22;54391;50.000;7.360;2023-09-19T05:33:01;13.00;76.60
39401;DHT22;54391;50.000;7.360;2023-09-19T05:35:30;13.00;74.40
39401;DHT22;54391;50.000;7.360;2023-09-19T05:37:58;12.90;75.20
39401;DHT22;54391;50.000;7.360;2023-09-19T05:40:26;13.00;74.10
39401;DHT22;54391;50.000;7.360;2023-09-19T05:42:53;13.00;73.80
39401;DHT22;54391;50.000;7.360;2023-09-19T05:47:50;13.00;70.70
39401;DHT22;54391;50.000;7.360;2023-09-19T05:50:21;13.00;72.20
39401;DHT22;54391;50.000;7.360;2023-09-19T05:52:54;12.90;72.40
39401;DHT22;54391;50.000;7.360;2023-09-19T05:55:23;12.90;68.70
39401;DHT22;54391;50.000;7.360;2023-09-19T05:57:51;12.90;69.20
39401;DHT22;54391;50.000;7.360;2023-09-19T06:00:19;12.90;69.10
39401;DHT22;54391;50.000;7.360;2023-09-19T06:02:53;12.90;68.20
39401;DHT22;54391;50.000;7.360;2023-09-19T06:05:21;12.90;69.20
39401;DHT22;54391;50.000;7.360;2023-09-19T06:07:48;12.90;67.90
39401;DHT22;54391;50.000;7.360;2023-09-19T06:10:16;12.90;68.80
39401;DHT22;54391;50.000;7.360;2023-09-19T06:12:44;11.70;67.50
39401;DHT22;54391;50.000;7.360;2023-09-19T06:15:12;12.80;68.10
39401;DHT22;54391;50.000;7.360;2023-09-19T06:17:42;12.80;64.80
39401;DHT22;54391;50.000;7.360;2023-09-19T06:20:11;12.80;67.70
39401;DHT22;54391;50.000;7.360;2023-09-19T06:22:40;12.50;65.90
39401;DHT22;54391;50.000;7.360;2023-09-19T06:25:09;12.90;66.80
39401;DHT22;54391;50.000;7.360;2023-09-19T06:27:38;12.90;65.50
39401;DHT22;54391;50.000;7.360;2023-09-19T06:30:09;13.00;64.20
39401;DHT22;54391;50.000;7.360;2023-09-19T06:32:37;13.00;61.40
39401;DHT22;54391;50.000;7.360;2023-09-19T06:35:05;13.00;64.60
39401;DHT22;54391;50.000;7.360;2023-09-19T06:37:36;13.10;63.10
39401;DHT22;54391;50.000;7.360;2023-09-19T06:40:06;13.10;61.10
39401;DHT22;54391;50.000;7.360;2023-09-19T06:42:34;13.20;58.20
39401;DHT22;54391;50.000;7.360;2023-09-19T06:45:04;13.10;59.30
39401;DHT22;54391;50.000;7.360;2023-09-19T06:47:31;13.10;59.10
39401;DHT22;54391;50.000;7.360;2023-09-19T06:49:58;13.10;60.50
39401;DHT22;54391;50.000;7.360;2023-09-19T06:52:28;13.10;61.80
39401;DHT22;54391;50.000;7.360;2023-09-19T06:54:57;13.20;60.50
39401;DHT22;54391;50.000;7.360;2023-09-19T06:57:24;13.30;59.20
39401;DHT22;54391;50.000;7.360;2023-09-19T06:59:51;13.30;61.00
39401;DHT22;54391;50.000;7.360;2023-09-19T07:02:19;13.30;59.60
39401;DHT22;54391;50.000;7.360;2023-09-19T07:04:48;13.70;62.60
39401;DHT22;54391;50.000;7.360;2023-09-19T07:07:15;13.30;53.40
39401;DHT22;54391;50.000;7.360;2023-09-19T07:09:42;13.30;54.30
39401;DHT22;54391;50.000;7.360;2023-09-19T07:12:11;13.40;54.80
39401;DHT22;54391;50.000;7.360;2023-09-19T07:14:39;13.40;58.40
39401;DHT22;54391;50.000;7.360;2023-09-19T07:17:06;13.40;55.00
39401;DHT22;54391;50.000;7.360;2023-09-19T07:19:33;13.40;56.10
39401;DHT22;54391;50.000;7.360;2023-09-19T07:22:01;13.60;48.00
39401;DHT22;54391;50.000;7.360;2023-09-19T07:24:29;13.50;46.20
39401;DHT22;54391;50.000;7.360;2023-09-19T07:26:57;13.50;44.90
39401;DHT22;54391;50.000;7.360;2023-09-19T07:29:25;13.50;44.40
39401;DHT22;54391;50.000;7.360;2023-09-19T07:31:53;13.40;42.80
39401;DHT22;54391;50.000;7.360;2023-09-19T07:34:20;13.30;42.90
39401;DHT22;54391;50.000;7.360;2023-09-19T07:36:49;13.00;41.40
39401;DHT22;54391;50.000;7.360;2023-09-19T07:39:16;13.00;43.10
39401;DHT22;54391;50.000;7.360;2023-09-19T07:41:43;13.00;43.70
39401;DHT22;54391;50.000;7.360;2023-09-19T07:44:10;12.90;45.50
39401;DHT22;54391;50.000;7.360;2023-09-19T07:46:39;12.90;46.20
39401;DHT22;54391;50.000;7.360;2023-09-19T07:49:06;12.90;47.90
39401;DHT22;54391;50.000;7.360;2023-09-19T07:51:34;12.90;48.70
39401;DHT22;54391;50.000;7.360;2023-09-19T07:54:01;12.90;49.40
39401;DHT22;54391;50.000;7.360;2023-09-19T07:56:29;12.90;46.90
39401;DHT22;54391;50.000;7.360;2023-09-19T07:58:57;13.00;48.70
39401;DHT22;54391;50.000;7.360;2023-09-19T08:01:25;13.20;47.60
39401;DHT22;54391;50.000;7.360;2023-09-19T08:03:54;13.20;46.10
39401;DHT22;54391;50.000;7.360;2023-09-19T08:06:22;13.40;40.90
39401;DHT22;54391;50.000;7.360;2023-09-19T08:08:51;13.40;44.50
39401;DHT22;54391;50.000;7.360;2023-09-19T08:11:20;13.40;40.00
39401;DHT22;54391;50.000;7.360;2023-09-19T08:13:50;13.40;39.90
39401;DHT22;54391;50.000;7.360;2023-09-19T08:16:19;13.50;39.70
39401;DHT22;54391;50.000;7.360;2023-09-19T08:18:48;13.60;39.60
39401;DHT22;54391;50.000;7.360;2023-09-19T08:21:22;13.90;38.30
39401;DHT22;54391;50.000;7.360;2023-09-19T08:23:50;14.00;35.10
39401;DHT22;54391;50.000;7.360;2023-09-19T08:26:17;14.30;36.20
39401;DHT22;54391;50.000;7.360;2023-09-19T08:28:45;14.60;33.00
39401;DHT22;54391;50.000;7.360;2023-09-19T08:31:13;14.70;31.40
39401;DHT22;54391;50.000;7.360;2023-09-19T08:33:43;14.60;28.60
39401;DHT22;54391;50.000;7.360;2023-09-19T08:36:17;14.80;25.90
39401;DHT22;54391;50.000;7.360;2023-09-19T08:38:45;14.60;24.80
39401;DHT22;54391;50.000;7.360;2023-09-19T08:41:13;14.50;26.00
39401;DHT22;54391;50.000;7.360;2023-09-19T08:43:40;14.20;22.70
39401;DHT22;54391;50.000;7.360;2023-09-19T08:46:10;14.60;22.80
39401;DHT22;54391;50.000;7.360;2023-09-19T08:48:45;14.90;21.70
39401;DHT22;54391;50.000;7.360;2023-09-19T08:51:18;14.90;18.90
39401;DHT22;54391;50.000;7.360;2023-09-19T08:53:51;15.10;19.10
39401;DHT22;54391;50.000;7.360;2023-09-19T08:56:22;15.40;15.70
39401;DHT22;54391;50.000;7.360;2023-09-19T08:58:55;15.30;16.50
39401;DHT22;54391;50.000;7.360;2023-09-19T09:01:27;15.40;14.30
39401;DHT22;54391;50.000;7.360;2023-09-19T09:03:56;15.60;14.10
39401;DHT22;54391;50.000;7.360;2023-09-19T09:06:24;15.30;15.00
39401;DHT22;54391;50.000;7.360;2023-09-19T09:08:53;15.30;17.20
39401;DHT22;54391;50.000;7.360;2023-09-19T09:11:21;15.40;15.50
39401;DHT22;54391;50.000;7.360;2023-09-19T09:13:49;15.00;12.90
39401;DHT22;54391;50.000;7.360;2023-09-19T09:16:16;15.60;11.80
39401;DHT22;54391;50.000;7.360;2023-09-19T09:18:44;15.70;13.10
39401;DHT22;54391;50.000;7.360;2023-09-19T09:21:12;16.20;10.00
39401;DHT22;54391;50.000;7.360;2023-09-19T09:23:41;16.60;10.40
39401;DHT22;54391;50.000;7.360;2023-09-19T09:26:10;17.10;10.30
39401;DHT22;54391;50.000;7.360;2023-09-19T09:28:45;17.30;6.40
39401;DHT22;54391;50.000;7.360;2023-09-19T09:31:22;17.80;5.00
39401;DHT22;54391;50.000;7.360;2023-09-19T09:33:53;17.60;1.00
39401;DHT22;54391;50.000;7.360;2023-09-19T09:36:34;17.80;1.00
39401;DHT22;54391;50.000;7.360;2023-09-19T09:39:02;17.70;1.00
39401;DHT22;54391;50.000;7.360;2023-09-19T09:41:43;17.70;1.00
39401;DHT22;54391;50.000;7.360;2023-09-19T09:44:15;16.80;1.00
39401;DHT22;54391;50.000;7.360;2023-09-19T09:46:45;16.30;1.00
39401;DHT22;54391;50.000;7.360;2023-09-19T09:49:47;16.50;1.00
39401;DHT22;54391;50.000;7.360;2023-09-19T09:52:20;16.10;1.00
39401;DHT22;54391;50.000;7.360;2023-09-19T09:54:59;16.50;1.00
39401;DHT22;54391;50.000;7.360;2023-09-19T09:57:32;16.70;1.00
39401;DHT22;54391;50.000;7.360;2023-09-19T10:00:00;17.10;1.00
39401;DHT22;54391;50.000;7.360;2023-09-19T10:02:45;17.30;1.00
39401;DHT22;54391;50.000;7.360;2023-09-19T10:05:13;17.60;1.00
39401;DHT22;54391;50.000;7.360;2023-09-19T10:07:47;17.90;1.00
39401;DHT22;54391;50.000;7.360;2023-09-19T10:10:30;18.30;1.00
39401;DHT22;54391;50.000;7.360;2023-09-19T10:13:06;18.20;1.00
39401;DHT22;54391;50.000;7.360;2023-09-19T10:15:38;17.60;1.00
39401;DHT22;54391;50.000;7.360;2023-09-19T10:18:07;17.80;1.00
39401;DHT22;54391;50.000;7.360;2023-09-19T10:20:36;18.30;1.00
39401;DHT22;54391;50.000;7.360;2023-09-19T10:23:06;18.00;1.00
39401;DHT22;54391;50.000;7.360;2023-09-19T10:25:39;16.80;1.00
39401;DHT22;54391;50.000;7.360;2023-09-19T10:28:10;16.70;1.00
39401;DHT22;54391;50.000;7.360;2023-09-19T10:30:41;17.20;1.00
39401;DHT22;54391;50.000;7.360;2023-09-19T10:33:11;18.00;1.00
39401;DHT22;54391;50.000;7.360;2023-09-19T10:35:39;18.30;1.00
39401;DHT22;54391;50.000;7.360;2023-09-19T10:38:10;18.20;1.00
39401;DHT22;54391;50.000;7.360;2023-09-19T10:40:38;18.40;1.00
39401;DHT22;54391;50.000;7.360;2023-09-19T10:43:16;18.30;1.00
39401;DHT22;54391;50.000;7.360;2023-09-19T10:45:47;17.50;1.00
39401;DHT22;54391;50.000;7.360;2023-09-19T10:48:16;17.30;1.00
39401;DHT22;54391;50.000;7.360;2023-09-19T10:50:48;17.20;1.00
39401;DHT22;54391;50.000;7.360;2023-09-19T10:53:17;16.50;1.00
39401;DHT22;54391;50.000;7.360;2023-09-19T10:55:50;16.90;1.00
39401;DHT22;54391;50.000;7.360;2023-09-19T10:58:31;17.10;1.00
39401;DHT22;54391;50.000;7.360;2023-09-19T11:01:00;17.70;1.00
39401;DHT22;54391;50.000;7.360;2023-09-19T11:03:38;17.90;1.00
39401;DHT22;54391;50.000;7.360;2023-09-19T11:06:11;18.10;1.00
39401;DHT22;54391;50.000;7.360;2023-09-19T11:08:56;18.20;1.00
39401;DHT22;54391;50.000;7.360;2023-09-19T11:11:42;18.00;1.00
39401;DHT22;54391;50.000;7.360;2023-09-19T11:14:29;18.50;1.00
39401;DHT22;54391;50.000;7.360;2023-09-19T11:20:21;18.50;1.00
39401;DHT22;54391;50.000;7.360;2023-09-19T11:23:20;18.60;1.00
39401;DHT22;54391;50.000;7.360;2023-09-19T11:25:53;19.00;1.00
39401;DHT22;54391;50.000;7.360;2023-09-19T11:28:30;19.00;1.00
39401;DHT22;54391;50.000;7.360;2023-09-19T11:34:39;19.10;1.00
39401;DHT22;54391;50.000;7.360;2023-09-19T11:40:28;19.00;1.00
39401;DHT22;54391;50.000;7.360;2023-09-19T11:42:56;18.80;1.00
39401;DHT22;54391;50.000;7.360;2023-09-19T11:48:32;18.40;1.00
39401;DHT22;54391;50.000;7.360;2023-09-19T11:51:01;18.30;1.00
39401;DHT22;54391;50.000;7.360;2023-09-19T11:53:33;18.30;1.00
39401;DHT22;54391;50.000;7.360;2023-09-19T11:56:04;18.30;1.00
39401;DHT22;54391;50.000;7.360;2023-09-19T11:58:37;18.20;1.00
39401;DHT22;54391;50.000;7.360;2023-09-19T12:01:05;17.60;1.00
39401;DHT22;54391;50.000;7.360;2023-09-19T12:03:42;17.30;1.00
39401;DHT22;54391;50.000;7.360;2023-09-19T12:06:14;17.20;1.00
39401;DHT22;54391;50.000;7.360;2023-09-19T12:08:42;17.30;1.00
39401;DHT22;54391;50.000;7.360;2023-09-19T12:11:13;17.50;1.00
39401;DHT22;54391;50.000;7.360;2023-09-19T12:13:43;17.80;1.00
39401;DHT22;54391;50.000;7.360;2023-09-19T12:16:13;18.00;1.00
39401;DHT22;54391;50.000;7.360;2023-09-19T12:18:43;18.00;1.00
39401;DHT22;54391;50.000;7.360;2023-09-19T12:21:25;17.90;1.00
39401;DHT22;54391;50.000;7.360;2023-09-19T12:23:59;18.10;1.00
39401;DHT22;54391;50.000;7.360;2023-09-19T12:26:27;18.00;1.00
39401;DHT22;54391;50.000;7.360;2023-09-19T12:28:55;18.00;1.00
39401;DHT22;54391;50.000;7.360;2023-09-19T12:31:23;18.10;1.00
39401;DHT22;54391;50.000;7.360;2023-09-19T12:33:57;18.40;1.00
39401;DHT22;54391;50.000;7.360;2023-09-19T12:36:24;18.80;1.00
39401;DHT22;54391;50.000;7.360;2023-09-19T12:38:56;21.60;1.00
39401;DHT22;54391;50.000;7.360;2023-09-19T12:41:25;18.80;1.00
39401;DHT22;54391;50.000;7.360;2023-09-19T12:43:52;19.00;1.00
39401;DHT22;54391;50.000;7.360;2023-09-19T12:46:21;19.10;1.00
39401;DHT22;54391;50.000;7.360;2023-09-19T12:49:16;19.20;1.00
39401;DHT22;54391;50.000;7.360;2023-09-19T12:51:45;19.30;1.00
39401;DHT22;54391;50.000;7.360;2023-09-19T12:54:13;19.40;1.00
39401;DHT22;54391;50.000;7.360;2023-09-19T12:56:42;19.10;1.00
39401;DHT22;54391;50.000;7.360;2023-09-19T12:59:12;19.00;1.00
39401;DHT22;54391;50.000;7.360;2023-09-19T13:01:40;19.10;1.00
39401;DHT22;54391;50.000;7.360;2023-09-19T13:04:17;19.00;1.00
39401;DHT22;54391;50.000;7.360;2023-09-19T13:06:52;19.00;1.00
39401;DHT22;54391;50.000;7.360;2023-09-19T13:09:21;19.00;1.00
39401;DHT22;54391;50.000;7.360;2023-09-19T13:11:50;19.10;1.00
39401;DHT22;54391;50.000;7.360;2023-09-19T13:14:20;19.50;1.00
39401;DHT22;54391;50.000;7.360;2023-09-19T13:16:56;19.30;1.00
39401;DHT22;54391;50.000;7.360;2023-09-19T13:19:39;19.30;1.00
39401;DHT22;54391;50.000;7.360;2023-09-19T13:22:37;19.10;1.00
39401;DHT22;54391;50.000;7.360;2023-09-19T13:25:06;19.00;1.00
39401;DHT22;54391;50.000;7.360;2023-09-19T13:27:34;18.90;1.00
39401;DHT22;54391;50.000;7.360;2023-09-19T13:30:01;18.80;1.00
39401;DHT22;54391;50.000;7.360;2023-09-19T13:32:28;18.90;1.00
39401;DHT22;54391;50.000;7.360;2023-09-19T13:34:57;18.90;1.00
39401;DHT22;54391;50.000;7.360;2023-09-19T13:37:24;18.80;1.00
39401;DHT22;54391;50.000;7.360;2023-09-19T13:39:52;18.80;1.00
39401;DHT22;54391;50.000;7.360;2023-09-19T13:42:19;18.60;1.00
39401;DHT22;54391;50.000;7.360;2023-09-19T13:44:47;18.50;1.00
39401;DHT22;54391;50.000;7.360;2023-09-19T13:47:14;18.60;1.00
39401;DHT22;54391;50.000;7.360;2023-09-19T13:49:42;18.50;1.00
39401;DHT22;54391;50.000;7.360;2023-09-19T13:52:11;18.80;1.00
39401;DHT22;54391;50.000;7.360;2023-09-19T13:54:39;19.00;1.00
39401;DHT22;54391;50.000;7.360;2023-09-19T13:57:07;19.30;1.00
39401;DHT22;54391;50.000;7.360;2023-09-19T13:59:34;19.40;1.00
39401;DHT22;54391;50.000;7.360;2023-09-19T14:02:01;19.30;1.00
39401;DHT22;54391;50.000;7.360;2023-09-19T14:04:32;19.10;1.00
39401;DHT22;54391;50.000;7.360;2023-09-19T14:07:00;19.00;1.00
39401;DHT22;54391;50.000;7.360;2023-09-19T14:09:29;19.10;1.00
39401;DHT22;54391;50.000;7.360;2023-09-19T14:11:56;19.30;1.00
39401;DHT22;54391;50.000;7.360;2023-09-19T14:14:23;19.20;1.00
39401;DHT22;54391;50.000;7.360;2023-09-19T14:16:50;18.90;1.00
39401;DHT22;54391;50.000;7.360;2023-09-19T14:19:19;18.60;1.00
39401;DHT22;54391;50.000;7.360;2023-09-19T14:21:46;18.50;1.00
39401;DHT22;54391;50.000;7.360;2023-09-19T14:24:16;18.40;1.00
39401;DHT22;54391;50.000;7.360;2023-09-19T14:26:45;18.80;1.00
39401;DHT22;54391;50.000;7.360;2023-09-19T14:29:13;18.60;1.00
39401;DHT22;54391;50.000;7.360;2023-09-19T14:31:40;18.70;1.00
39401;DHT22;54391;50.000;7.360;2023-09-19T14:34:08;18.50;1.00
39401;DHT22;54391;50.000;7.360;2023-09-19T14:36:36;18.30;1.00
39401;DHT22;54391;50.000;7.360;2023-09-19T14:39:04;18.40;1.00
39401;DHT22;54391;50.000;7.360;2023-09-19T14:41:32;18.40;1.00
39401;DHT22;54391;50.000;7.360;2023-09-19T14:44:02;18.50;1.00
39401;DHT22;54391;50.000;7.360;2023-09-19T14:46:30;18.80;1.00
39401;DHT22;54391;50.000;7.360;2023-09-19T14:48:58;18.80;1.00
39401;DHT22;54391;50.000;7.360;2023-09-19T14:51:25;18.70;1.00
39401;DHT22;54391;50.000;7.360;2023-09-19T14:53:53;18.80;1.00
39401;DHT22;54391;50.000;7.360;2023-09-19T14:56:20;18.80;1.00
39401;DHT22;54391;50.000;7.360;2023-09-19T14:58:48;18.80;1.00
39401;DHT22;54391;50.000;7.360;2023-09-19T15:01:16;18.70;1.00
39401;DHT22;54391;50.000;7.360;2023-09-19T15:03:43;18.60;1.00
39401;DHT22;54391;50.000;7.360;2023-09-19T15:06:12;18.50;1.00
39401;DHT22;54391;50.000;7.360;2023-09-19T15:08:41;18.50;1.00
39401;DHT22;54391;50.000;7.360;2023-09-19T15:11:12;18.50;1.00
39401;DHT22;54391;50.000;7.360;2023-09-19T15:13:39;18.40;1.00
39401;DHT22;54391;50.000;7.360;2023-09-19T15:16:07;18.50;1.00
39401;DHT22;54391;50.000;7.360;2023-09-19T15:18:37;18.40;1.00
39401;DHT22;54391;50.000;7.360;2023-09-19T15:21:06;18.20;1.00
39401;DHT22;54391;50.000;7.360;2023-09-19T15:23:35;18.20;1.00
39401;DHT22;54391;50.000;7.360;2023-09-19T15:26:04;18.20;1.00
39401;DHT22;54391;50.000;7.360;2023-09-19T15:28:32;18.10;1.00
39401;DHT22;54391;50.000;7.360;2023-09-19T15:31:00;18.10;1.00
39401;DHT22;54391;50.000;7.360;2023-09-19T15:33:30;18.00;1.00
39401;DHT22;54391;50.000;7.360;2023-09-19T15:36:03;17.90;1.00
39401;DHT22;54391;50.000;7.360;2023-09-19T15:38:31;17.80;1.00
39401;DHT22;54391;50.000;7.360;2023-09-19T15:40:59;17.70;1.00
39401;DHT22;54391;50.000;7.360;2023-09-19T15:43:26;17.60;1.00
39401;DHT22;54391;50.000;7.360;2023-09-19T15:45:53;17.60;1.00
39401;DHT22;54391;50.000;7.360;2023-09-19T15:48:21;17.60;1.00
39401;DHT22;54391;50.000;7.360;2023-09-19T15:50:48;17.60;1.00
39401;DHT22;54391;50.000;7.360;2023-09-19T15:53:16;17.70;1.00
39401;DHT22;54391;50.000;7.360;2023-09-19T15:55:44;17.90;1.00
39401;DHT22;54391;50.000;7.360;2023-09-19T15:58:12;17.90;1.00
39401;DHT22;54391;50.000;7.360;2023-09-19T16:00:40;17.90;1.00
39401;DHT22;54391;50.000;7.360;2023-09-19T16:03:07;17.90;1.00
39401;DHT22;54391;50.000;7.360;2023-09-19T16:05:36;18.00;1.00
39401;DHT22;54391;50.000;7.360;2023-09-19T16:08:06;18.00;1.00
39401;DHT22;54391;50.000;7.360;2023-09-19T16:10:38;18.10;1.00
39401;DHT22;54391;50.000;7.360;2023-09-19T16:13:06;18.00;1.00
39401;DHT22;54391;50.000;7.360;2023-09-19T16:15:41;17.90;1.00